createdAt,value
2018-06-12T00:00:06.164Z,17.40
2018-06-12T00:01:06.396Z,17.40
2018-06-12T00:02:05.374Z,17.40
2018-06-12T00:03:05.302Z,17.40
2018-06-12T00:04:05.917Z,17.30
2018-06-12T00:05:05.501Z,17.40
2018-06-12T00:06:05.472Z,17.30
2018-06-12T00:07:08.251Z,17.40
2018-06-12T00:08:05.841Z,17.40
2018-06-12T00:09:05.310Z,17.40
2018-06-12T00:10:10.537Z,17.40
2018-06-12T00:11:12.172Z,17.30
2018-06-12T00:12:05.896Z,17.30
2018-06-12T00:13:05.743Z,17.40
2018-06-12T00:14:08.200Z,17.30
2018-06-12T00:15:05.454Z,17.30
2018-06-12T00:16:05.291Z,17.30
2018-06-12T00:17:05.684Z,17.20
2018-06-12T00:18:11.171Z,17.20
2018-06-12T00:19:10.759Z,17.20
2018-06-12T00:20:09.205Z,17.20
2018-06-12T00:21:05.855Z,17.20
2018-06-12T00:22:05.294Z,17.20
2018-06-12T00:23:10.990Z,17.20
2018-06-12T00:24:13.248Z,17.20
2018-06-12T00:25:08.171Z,17.20
2018-06-12T00:26:05.760Z,17.20
2018-06-12T00:27:05.806Z,17.20
2018-06-12T00:28:05.846Z,17.20
2018-06-12T00:29:05.647Z,17.20
2018-06-12T00:30:05.261Z,17.10
2018-06-12T00:31:05.342Z,17.10
2018-06-12T00:32:05.528Z,17.10
2018-06-12T00:33:05.606Z,17.10
2018-06-12T00:34:05.759Z,17.10
2018-06-12T00:35:08.854Z,17.10
2018-06-12T00:36:08.707Z,17.10
2018-06-12T00:37:05.587Z,17.10
2018-06-12T00:38:08.321Z,17.10
2018-06-12T00:39:05.875Z,17.10
2018-06-12T00:40:05.673Z,17.10
2018-06-12T00:41:07.839Z,17.10
2018-06-12T00:42:05.422Z,17.10
2018-06-12T00:43:10.333Z,17.10
2018-06-12T00:44:05.855Z,17.10
2018-06-12T00:45:06.016Z,17.10
2018-06-12T00:46:05.842Z,17.00
2018-06-12T00:47:05.590Z,17.00
2018-06-12T00:48:05.154Z,17.00
2018-06-12T00:49:08.495Z,17.00
2018-06-12T00:50:08.816Z,17.00
2018-06-12T00:51:05.225Z,17.00
2018-06-12T00:52:06.198Z,17.00
2018-06-12T00:53:05.778Z,17.00
2018-06-12T00:54:10.389Z,17.00
2018-06-12T00:55:05.841Z,17.00
2018-06-12T00:56:10.585Z,17.00
2018-06-12T00:57:08.298Z,16.90
2018-06-12T00:58:10.763Z,16.90
2018-06-12T00:59:13.195Z,16.90
2018-06-12T01:00:05.759Z,16.90
2018-06-12T01:01:05.948Z,16.90
2018-06-12T01:02:09.024Z,17.00
2018-06-12T01:03:05.713Z,16.90
2018-06-12T01:04:08.005Z,16.90
2018-06-12T01:05:05.683Z,16.90
2018-06-12T01:06:05.844Z,16.90
2018-06-12T01:07:08.683Z,16.90
2018-06-12T01:08:05.242Z,16.90
2018-06-12T01:09:05.138Z,16.90
2018-06-12T01:10:06.043Z,16.90
2018-06-12T01:11:06.603Z,16.90
2018-06-12T01:12:05.592Z,16.90
2018-06-12T01:13:06.471Z,16.90
2018-06-12T01:14:06.030Z,16.90
2018-06-12T01:15:05.902Z,16.90
2018-06-12T01:16:05.704Z,16.90
2018-06-12T01:17:05.481Z,16.90
2018-06-12T01:18:05.980Z,16.90
2018-06-12T01:19:08.720Z,16.90
2018-06-12T01:20:05.475Z,16.90
2018-06-12T01:21:05.701Z,16.90
2018-06-12T01:22:11.408Z,16.90
2018-06-12T01:23:11.189Z,16.80
2018-06-12T01:24:08.700Z,16.90
2018-06-12T01:25:05.206Z,16.90
2018-06-12T01:26:05.282Z,16.80
2018-06-12T01:27:10.516Z,16.90
2018-06-12T01:28:05.823Z,16.90
2018-06-12T01:29:08.135Z,16.90
2018-06-12T01:30:08.314Z,16.90
2018-06-12T01:31:05.894Z,16.90
2018-06-12T01:32:05.962Z,16.90
2018-06-12T01:33:08.209Z,16.90
2018-06-12T01:34:06.050Z,16.90
2018-06-12T01:35:09.276Z,16.90
2018-06-12T01:36:08.151Z,16.90
2018-06-12T01:37:05.626Z,16.90
2018-06-12T01:38:08.546Z,16.80
2018-06-12T01:39:06.058Z,16.80
2018-06-12T01:40:05.324Z,16.80
2018-06-12T01:41:08.641Z,16.80
2018-06-12T01:42:05.135Z,16.80
2018-06-12T01:43:10.975Z,16.80
2018-06-12T01:44:07.970Z,16.80
2018-06-12T01:45:05.418Z,16.80
2018-06-12T01:46:05.638Z,16.80
2018-06-12T01:47:06.158Z,16.80
2018-06-12T01:48:06.285Z,16.70
2018-06-12T01:49:05.827Z,16.70
2018-06-12T01:50:13.733Z,16.70
2018-06-12T01:51:05.909Z,16.70
2018-06-12T01:52:10.644Z,16.70
2018-06-12T01:53:06.010Z,16.70
2018-06-12T01:54:10.797Z,16.70
2018-06-12T01:55:06.409Z,16.70
2018-06-12T01:56:08.047Z,16.70
2018-06-12T01:57:08.884Z,16.70
2018-06-12T01:58:05.481Z,16.70
2018-06-12T01:59:11.228Z,16.70
2018-06-12T02:00:09.045Z,16.70
2018-06-12T02:01:10.591Z,16.70
2018-06-12T02:02:06.030Z,16.70
2018-06-12T02:03:06.268Z,16.70
2018-06-12T02:04:06.180Z,16.70
2018-06-12T02:05:08.067Z,16.80
2018-06-12T02:06:08.488Z,16.70
2018-06-12T02:07:05.431Z,16.80
2018-06-12T02:08:05.761Z,16.80
2018-06-12T02:09:10.919Z,16.70
2018-06-12T02:10:08.745Z,16.80
2018-06-12T02:11:07.818Z,16.70
2018-06-12T02:12:12.971Z,16.70
2018-06-12T02:13:10.558Z,16.70
2018-06-12T02:14:06.025Z,16.70
2018-06-12T02:15:08.579Z,16.80
2018-06-12T02:16:08.494Z,16.80
2018-06-12T02:17:06.474Z,16.70
2018-06-12T02:18:06.575Z,16.80
2018-06-12T02:19:05.802Z,16.70
2018-06-12T02:20:05.796Z,16.80
2018-06-12T02:21:06.047Z,16.70
2018-06-12T02:22:08.607Z,16.70
2018-06-12T02:23:08.629Z,16.70
2018-06-12T02:24:06.110Z,16.70
2018-06-12T02:25:05.727Z,16.70
2018-06-12T02:26:10.725Z,16.70
2018-06-12T02:27:05.538Z,16.70
2018-06-12T02:28:05.689Z,16.70
2018-06-12T02:29:06.172Z,16.70
2018-06-12T02:30:08.845Z,16.70
2018-06-12T02:31:07.825Z,16.70
2018-06-12T02:32:05.367Z,16.70
2018-06-12T02:33:05.466Z,16.70
2018-06-12T02:34:08.488Z,16.60
2018-06-12T02:35:11.098Z,16.60
2018-06-12T02:36:09.050Z,16.60
2018-06-12T02:37:05.601Z,16.60
2018-06-12T02:38:08.888Z,16.60
2018-06-12T02:39:05.840Z,16.60
2018-06-12T02:40:10.371Z,16.60
2018-06-12T02:41:06.084Z,16.60
2018-06-12T02:42:06.245Z,16.60
2018-06-12T02:43:06.449Z,16.60
2018-06-12T02:44:05.468Z,16.60
2018-06-12T02:45:05.709Z,16.60
2018-06-12T02:46:05.525Z,16.60
2018-06-12T02:47:05.789Z,16.60
2018-06-12T02:48:05.346Z,16.60
2018-06-12T02:49:05.777Z,16.60
2018-06-12T02:50:08.195Z,16.50
2018-06-12T02:51:05.684Z,16.60
2018-06-12T02:52:08.798Z,16.60
2018-06-12T02:53:08.000Z,16.60
2018-06-12T02:54:09.270Z,16.60
2018-06-12T02:55:05.897Z,16.60
2018-06-12T02:56:05.228Z,16.60
2018-06-12T02:57:07.877Z,16.60
2018-06-12T02:58:05.625Z,16.60
2018-06-12T02:59:05.223Z,16.60
2018-06-12T03:00:08.128Z,16.60
2018-06-12T03:01:05.665Z,16.60
2018-06-12T03:02:08.065Z,16.60
2018-06-12T03:03:05.540Z,16.60
2018-06-12T03:04:05.778Z,16.60
2018-06-12T03:05:05.626Z,16.60
2018-06-12T03:06:08.091Z,16.60
2018-06-12T03:07:05.958Z,16.60
2018-06-12T03:08:05.696Z,16.60
2018-06-12T03:09:11.010Z,16.60
2018-06-12T03:10:11.070Z,16.60
2018-06-12T03:11:05.303Z,16.60
2018-06-12T03:12:05.700Z,16.60
2018-06-12T03:13:10.428Z,16.60
2018-06-12T03:14:11.128Z,16.60
2018-06-12T03:15:05.655Z,16.60
2018-06-12T03:16:06.255Z,16.60
2018-06-12T03:17:06.363Z,16.60
2018-06-12T03:18:05.978Z,16.60
2018-06-12T03:19:09.338Z,16.60
2018-06-12T03:20:06.051Z,16.60
2018-06-12T03:21:05.850Z,16.60
2018-06-12T03:22:08.186Z,16.60
2018-06-12T03:23:09.002Z,16.60
2018-06-12T03:24:05.770Z,16.60
2018-06-12T03:25:05.878Z,16.60
2018-06-12T03:26:05.989Z,16.50
2018-06-12T03:27:05.708Z,16.50
2018-06-12T03:28:10.630Z,16.50
2018-06-12T03:29:05.240Z,16.50
2018-06-12T03:30:05.900Z,16.50
2018-06-12T03:31:10.660Z,16.50
2018-06-12T03:32:05.902Z,16.50
2018-06-12T03:33:10.594Z,16.50
2018-06-12T03:34:05.312Z,16.50
2018-06-12T03:35:05.984Z,16.50
2018-06-12T03:36:05.408Z,16.50
2018-06-12T03:37:07.991Z,16.50
2018-06-12T03:38:08.643Z,16.50
2018-06-12T03:39:05.401Z,16.50
2018-06-12T03:40:05.746Z,16.50
2018-06-12T03:41:05.910Z,16.50
2018-06-12T03:42:06.072Z,16.40
2018-06-12T03:43:11.071Z,16.40
2018-06-12T03:44:05.897Z,16.40
2018-06-12T03:45:06.001Z,16.40
2018-06-12T03:46:09.073Z,16.40
2018-06-12T03:47:10.019Z,16.40
2018-06-12T03:48:05.602Z,16.40
2018-06-12T03:49:08.010Z,16.40
2018-06-12T03:50:05.527Z,16.40
2018-06-12T03:51:08.679Z,16.30
2018-06-12T03:52:07.686Z,16.20
2018-06-12T03:53:10.166Z,16.20
2018-06-12T03:54:06.112Z,16.20
2018-06-12T03:55:10.793Z,16.20
2018-06-12T03:56:05.852Z,16.20
2018-06-12T03:57:08.081Z,16.20
2018-06-12T03:58:05.573Z,16.20
2018-06-12T03:59:06.487Z,16.20
2018-06-12T04:00:08.856Z,16.20
2018-06-12T04:01:08.415Z,16.20
2018-06-12T04:02:06.095Z,16.20
2018-06-12T04:03:08.208Z,16.20
2018-06-12T04:04:08.301Z,16.20
2018-06-12T04:05:06.331Z,16.20
2018-06-12T04:06:05.291Z,16.30
2018-06-12T04:07:05.210Z,16.20
2018-06-12T04:08:05.801Z,16.30
2018-06-12T04:09:11.152Z,16.20
2018-06-12T04:10:06.766Z,16.20
2018-06-12T04:11:05.878Z,16.20
2018-06-12T04:12:05.776Z,16.20
2018-06-12T04:13:06.178Z,16.20
2018-06-12T04:14:10.983Z,16.10
2018-06-12T04:15:08.402Z,16.20
2018-06-12T04:16:06.439Z,16.10
2018-06-12T04:17:11.248Z,16.10
2018-06-12T04:18:08.943Z,16.00
2018-06-12T04:19:10.228Z,16.00
2018-06-12T04:20:06.005Z,16.00
2018-06-12T04:21:10.740Z,16.00
2018-06-12T04:22:05.169Z,16.00
2018-06-12T04:23:10.850Z,15.90
2018-06-12T04:24:05.924Z,15.90
2018-06-12T04:25:08.616Z,15.90
2018-06-12T04:26:08.411Z,15.90
2018-06-12T04:27:08.437Z,15.90
2018-06-12T04:28:09.218Z,15.90
2018-06-12T04:29:08.661Z,15.90
2018-06-12T04:30:07.796Z,15.90
2018-06-12T04:31:05.282Z,15.90
2018-06-12T04:32:10.195Z,15.80
2018-06-12T04:33:06.150Z,15.80
2018-06-12T04:34:05.343Z,15.80
2018-06-12T04:35:06.069Z,15.80
2018-06-12T04:36:05.824Z,15.80
2018-06-12T04:37:05.656Z,15.80
2018-06-12T04:38:07.800Z,15.80
2018-06-12T04:39:05.292Z,15.80
2018-06-12T04:40:11.216Z,15.80
2018-06-12T04:41:06.130Z,15.80
2018-06-12T04:42:05.668Z,15.80
2018-06-12T04:43:05.322Z,15.80
2018-06-12T04:44:06.532Z,15.80
2018-06-12T04:45:10.616Z,15.80
2018-06-12T04:46:11.149Z,15.80
2018-06-12T04:47:05.741Z,15.80
2018-06-12T04:48:05.811Z,15.80
2018-06-12T04:49:10.688Z,15.80
2018-06-12T04:50:05.196Z,15.80
2018-06-12T04:51:08.309Z,15.90
2018-06-12T04:52:08.437Z,15.90
2018-06-12T04:53:09.735Z,15.90
2018-06-12T04:54:05.485Z,15.90
2018-06-12T04:55:05.641Z,15.90
2018-06-12T04:56:11.173Z,15.90
2018-06-12T04:57:08.915Z,15.90
2018-06-12T04:58:05.398Z,15.90
2018-06-12T04:59:06.201Z,15.90
2018-06-12T05:00:12.903Z,15.90
2018-06-12T05:01:08.003Z,15.90
2018-06-12T05:02:05.768Z,15.90
2018-06-12T05:03:05.527Z,15.90
2018-06-12T05:04:05.999Z,15.90
2018-06-12T05:05:09.337Z,15.90
2018-06-12T05:06:07.913Z,16.00
2018-06-12T05:07:05.541Z,16.00
2018-06-12T05:08:06.157Z,16.00
2018-06-12T05:09:05.806Z,16.00
2018-06-12T05:10:05.478Z,16.00
2018-06-12T05:11:05.781Z,16.00
2018-06-12T05:12:10.894Z,16.00
2018-06-12T05:13:08.051Z,16.00
2018-06-12T05:14:10.491Z,16.00
2018-06-12T05:15:07.972Z,16.00
2018-06-12T05:16:05.567Z,16.00
2018-06-12T05:17:05.372Z,16.00
2018-06-12T05:18:05.785Z,16.10
2018-06-12T05:19:08.873Z,16.10
2018-06-12T05:20:08.172Z,16.10
2018-06-12T05:21:05.815Z,16.20
2018-06-12T05:22:08.409Z,16.10
2018-06-12T05:23:05.166Z,16.20
2018-06-12T05:24:07.936Z,16.20
2018-06-12T05:25:05.353Z,16.20
2018-06-12T05:26:05.447Z,16.20
2018-06-12T05:27:06.005Z,16.20
2018-06-12T05:28:06.169Z,16.20
2018-06-12T05:29:10.743Z,16.20
2018-06-12T05:30:06.360Z,16.20
2018-06-12T05:31:07.047Z,16.20
2018-06-12T05:32:05.567Z,16.20
2018-06-12T05:33:10.575Z,16.20
2018-06-12T05:34:11.025Z,16.10
2018-06-12T05:35:05.622Z,16.20
2018-06-12T05:36:08.341Z,16.10
2018-06-12T05:37:10.931Z,16.20
2018-06-12T05:38:05.318Z,16.10
2018-06-12T05:39:06.088Z,16.10
2018-06-12T05:40:08.240Z,16.10
2018-06-12T05:41:05.711Z,16.10
2018-06-12T05:42:07.903Z,16.10
2018-06-12T05:43:05.333Z,16.10
2018-06-12T05:44:10.790Z,16.00
2018-06-12T05:45:09.412Z,16.10
2018-06-12T05:46:06.181Z,16.00
2018-06-12T05:47:05.405Z,16.00
2018-06-12T05:48:05.675Z,16.00
2018-06-12T05:49:09.226Z,16.00
2018-06-12T05:50:05.595Z,16.00
2018-06-12T05:51:08.741Z,16.10
2018-06-12T05:52:05.224Z,16.00
2018-06-12T05:53:06.144Z,16.10
2018-06-12T05:54:06.179Z,16.00
2018-06-12T05:55:08.561Z,16.00
2018-06-12T05:56:06.023Z,16.10
2018-06-12T05:57:05.490Z,16.00
2018-06-12T05:58:08.672Z,16.00
2018-06-12T05:59:05.224Z,16.00
2018-06-12T06:00:05.751Z,16.00
2018-06-12T06:01:05.797Z,16.00
2018-06-12T06:02:05.946Z,16.00
2018-06-12T06:03:08.190Z,16.00
2018-06-12T06:04:06.041Z,16.00
2018-06-12T06:05:05.391Z,16.00
2018-06-12T06:06:08.620Z,15.90
2018-06-12T06:07:06.225Z,15.90
2018-06-12T06:08:05.336Z,15.90
2018-06-12T06:09:05.787Z,15.90
2018-06-12T06:10:08.371Z,15.80
2018-06-12T06:11:05.854Z,15.80
2018-06-12T06:12:05.861Z,15.80
2018-06-12T06:13:05.358Z,15.80
2018-06-12T06:14:06.144Z,15.80
2018-06-12T06:15:06.325Z,15.80
2018-06-12T06:16:08.297Z,15.80
2018-06-12T06:17:09.706Z,15.80
2018-06-12T06:18:10.464Z,15.80
2018-06-12T06:19:08.459Z,15.90
2018-06-12T06:20:09.704Z,15.90
2018-06-12T06:21:12.960Z,15.90
2018-06-12T06:22:05.977Z,15.90
2018-06-12T06:23:05.221Z,15.90
2018-06-12T06:24:06.120Z,15.90
2018-06-12T06:25:05.766Z,15.90
2018-06-12T06:26:05.961Z,16.00
2018-06-12T06:27:05.762Z,16.00
2018-06-12T06:28:06.174Z,16.00
2018-06-12T06:29:05.816Z,16.00
2018-06-12T06:30:10.592Z,16.00
2018-06-12T06:31:06.077Z,16.00
2018-06-12T06:32:06.084Z,16.00
2018-06-12T06:33:09.277Z,16.00
2018-06-12T06:34:08.156Z,16.00
2018-06-12T06:35:05.785Z,16.00
2018-06-12T06:36:08.784Z,16.00
2018-06-12T06:37:05.338Z,16.00
2018-06-12T06:38:06.049Z,16.00
2018-06-12T06:39:06.912Z,16.10
2018-06-12T06:40:05.665Z,16.10
2018-06-12T06:41:08.798Z,16.10
2018-06-12T06:42:05.261Z,16.10
2018-06-12T06:43:08.159Z,16.10
2018-06-12T06:44:05.909Z,16.10
2018-06-12T06:45:10.324Z,16.10
2018-06-12T06:46:08.837Z,16.20
2018-06-12T06:47:05.900Z,16.20
2018-06-12T06:48:10.737Z,16.30
2018-06-12T06:49:05.197Z,16.30
2018-06-12T06:50:05.300Z,16.40
2018-06-12T06:51:11.205Z,16.40
2018-06-12T06:52:08.217Z,16.40
2018-06-12T06:53:05.789Z,16.40
2018-06-12T06:54:07.944Z,16.50
2018-06-12T06:55:05.571Z,16.50
2018-06-12T06:56:07.903Z,16.60
2018-06-12T06:57:05.883Z,16.50
2018-06-12T06:58:08.036Z,16.50
2018-06-12T06:59:06.196Z,16.50
2018-06-12T07:00:08.578Z,16.50
2018-06-12T07:01:11.213Z,16.50
2018-06-12T07:02:12.745Z,16.50
2018-06-12T07:03:05.503Z,16.50
2018-06-12T07:04:06.275Z,3.70
2018-06-12T07:05:05.846Z,16.50
2018-06-12T07:06:10.809Z,16.50
2018-06-12T07:07:05.220Z,16.50
2018-06-12T07:08:13.712Z,16.50
2018-06-12T07:09:07.784Z,16.50
2018-06-12T07:10:08.017Z,16.50
2018-06-12T07:11:05.549Z,16.50
2018-06-12T07:12:08.274Z,16.50
2018-06-12T07:13:13.313Z,16.50
2018-06-12T07:14:05.829Z,16.50
2018-06-12T07:15:10.672Z,16.50
2018-06-12T07:16:15.115Z,16.40
2018-06-12T07:17:06.020Z,16.40
2018-06-12T07:18:10.860Z,16.40
2018-06-12T07:19:07.851Z,16.40
2018-06-12T07:20:05.478Z,16.30
2018-06-12T07:21:10.270Z,16.30
2018-06-12T07:22:10.359Z,16.30
2018-06-12T07:23:10.911Z,16.30
2018-06-12T07:24:05.543Z,16.30
2018-06-12T07:25:07.823Z,16.30
2018-06-12T07:26:09.078Z,16.30
2018-06-12T07:27:05.574Z,16.30
2018-06-12T07:28:08.226Z,16.20
2018-06-12T07:29:05.321Z,16.20
2018-06-12T07:30:10.488Z,16.20
2018-06-12T07:31:06.008Z,16.20
2018-06-12T07:32:09.094Z,16.10
2018-06-12T07:33:10.645Z,16.10
2018-06-12T07:34:06.767Z,16.10
2018-06-12T07:35:05.618Z,16.10
2018-06-12T07:36:08.201Z,16.10
2018-06-12T07:37:06.273Z,16.10
2018-06-12T07:38:08.421Z,16.00
2018-06-12T07:39:07.991Z,16.00
2018-06-12T07:40:08.870Z,16.00
2018-06-12T07:41:05.400Z,16.00
2018-06-12T07:42:05.292Z,16.00
2018-06-12T07:43:10.633Z,16.00
2018-06-12T07:44:05.163Z,16.00
2018-06-12T07:45:05.967Z,15.90
2018-06-12T07:46:05.379Z,16.00
2018-06-12T07:47:05.706Z,16.00
2018-06-12T07:48:05.545Z,15.90
2018-06-12T07:49:05.527Z,16.00
2018-06-12T07:50:05.291Z,16.00
2018-06-12T07:51:08.467Z,16.00
2018-06-12T07:52:13.569Z,16.10
2018-06-12T07:53:06.234Z,16.10
2018-06-12T07:54:05.970Z,16.10
2018-06-12T07:55:07.806Z,16.10
2018-06-12T07:56:05.335Z,16.10
2018-06-12T07:57:11.138Z,16.20
2018-06-12T07:58:05.325Z,16.20
2018-06-12T07:59:08.115Z,16.20
2018-06-12T08:00:05.587Z,16.20
2018-06-12T08:01:05.910Z,16.20
2018-06-12T08:02:05.752Z,16.30
2018-06-12T08:03:05.316Z,16.30
2018-06-12T08:04:05.688Z,16.30
2018-06-12T08:05:08.060Z,16.40
2018-06-12T08:06:05.582Z,16.40
2018-06-12T08:07:05.758Z,16.40
2018-06-12T08:08:07.987Z,16.40
2018-06-12T08:09:06.081Z,16.40
2018-06-12T08:10:08.306Z,16.40
2018-06-12T08:11:10.835Z,16.40
2018-06-12T08:12:06.017Z,16.40
2018-06-12T08:13:05.828Z,16.50
2018-06-12T08:14:05.378Z,16.40
2018-06-12T08:15:08.444Z,16.40
2018-06-12T08:16:05.708Z,16.40
2018-06-12T08:17:05.850Z,16.50
2018-06-12T08:18:05.714Z,16.40
2018-06-12T08:19:05.871Z,16.40
2018-06-12T08:20:08.293Z,16.40
2018-06-12T08:21:06.072Z,16.40
2018-06-12T08:22:05.176Z,16.40
2018-06-12T08:23:05.366Z,16.40
2018-06-12T08:24:05.341Z,16.50
2018-06-12T08:25:05.263Z,16.40
2018-06-12T08:26:05.489Z,16.50
2018-06-12T08:27:08.064Z,16.40
2018-06-12T08:28:06.008Z,16.50
2018-06-12T08:29:08.915Z,16.50
2018-06-12T08:30:05.677Z,16.50
2018-06-12T08:31:05.958Z,16.50
2018-06-12T08:32:06.152Z,16.50
2018-06-12T08:33:05.672Z,16.50
2018-06-12T08:34:08.214Z,16.60
2018-06-12T08:35:05.677Z,16.60
2018-06-12T08:36:08.623Z,16.60
2018-06-12T08:37:06.023Z,16.60
2018-06-12T08:38:08.806Z,16.60
2018-06-12T08:39:13.026Z,16.60
2018-06-12T08:40:08.183Z,16.70
2018-06-12T08:41:05.717Z,16.60
2018-06-12T08:42:05.281Z,16.60
2018-06-12T08:43:07.969Z,16.70
2018-06-12T08:44:06.098Z,16.70
2018-06-12T08:45:05.864Z,16.70
2018-06-12T08:46:05.875Z,16.70
2018-06-12T08:47:06.722Z,16.70
2018-06-12T08:48:06.059Z,16.70
2018-06-12T08:49:05.904Z,16.80
2018-06-12T08:50:05.692Z,16.80
2018-06-12T08:51:05.459Z,16.80
2018-06-12T08:52:05.361Z,16.80
2018-06-12T08:53:06.345Z,16.90
2018-06-12T08:54:05.949Z,16.90
2018-06-12T08:55:05.638Z,16.90
2018-06-12T08:56:08.606Z,16.90
2018-06-12T08:57:07.176Z,17.00
2018-06-12T08:58:10.767Z,17.00
2018-06-12T08:59:05.402Z,17.00
2018-06-12T09:00:05.346Z,16.90
2018-06-12T09:01:05.507Z,16.90
2018-06-12T09:02:05.635Z,16.90
2018-06-12T09:03:10.337Z,16.90
2018-06-12T09:04:08.402Z,16.90
2018-06-12T09:05:06.030Z,16.90
2018-06-12T09:06:10.464Z,16.90
2018-06-12T09:07:05.885Z,17.00
2018-06-12T09:08:09.394Z,17.00
2018-06-12T09:09:05.972Z,17.00
2018-06-12T09:10:05.656Z,17.00
2018-06-12T09:11:05.524Z,17.00
2018-06-12T09:12:10.296Z,17.10
2018-06-12T09:13:05.649Z,17.10
2018-06-12T09:14:07.949Z,17.10
2018-06-12T09:15:05.449Z,17.10
2018-06-12T09:16:08.547Z,17.20
2018-06-12T09:17:06.092Z,17.10
2018-06-12T09:18:05.262Z,17.20
2018-06-12T09:19:08.403Z,17.20
2018-06-12T09:20:06.370Z,17.20
2018-06-12T09:21:16.013Z,17.20
2018-06-12T09:22:10.197Z,17.30
2018-06-12T09:23:09.172Z,17.30
2018-06-12T09:24:09.318Z,17.30
2018-06-12T09:25:11.066Z,17.30
2018-06-12T09:26:06.101Z,17.30
2018-06-12T09:27:06.090Z,17.30
2018-06-12T09:28:08.471Z,17.40
2018-06-12T09:29:10.352Z,17.40
2018-06-12T09:30:08.576Z,17.40
2018-06-12T09:31:11.256Z,17.40
2018-06-12T09:32:08.230Z,17.50
2018-06-12T09:33:05.677Z,17.40
2018-06-12T09:34:05.754Z,17.50
2018-06-12T09:35:09.212Z,17.60
2018-06-12T09:36:06.180Z,17.60
2018-06-12T09:37:08.557Z,17.70
2018-06-12T09:38:08.063Z,17.70
2018-06-12T09:39:05.532Z,17.70
2018-06-12T09:40:05.358Z,17.80
2018-06-12T09:41:08.482Z,17.90
2018-06-12T09:42:05.765Z,17.90
2018-06-12T09:43:05.245Z,18.00
2018-06-12T09:44:05.841Z,18.00
2018-06-12T09:45:08.087Z,18.10
2018-06-12T09:46:13.259Z,18.10
2018-06-12T09:47:08.392Z,18.20
2018-06-12T09:48:09.339Z,18.20
2018-06-12T09:49:08.914Z,18.20
2018-06-12T09:50:09.830Z,18.30
2018-06-12T09:51:05.305Z,18.30
2018-06-12T09:52:05.590Z,18.30
2018-06-12T09:53:08.552Z,18.40
2018-06-12T09:54:05.999Z,18.40
2018-06-12T09:55:11.205Z,18.40
2018-06-12T09:56:06.681Z,18.40
2018-06-12T09:57:08.509Z,18.50
2018-06-12T09:58:06.613Z,18.50
2018-06-12T09:59:05.452Z,18.50
2018-06-12T10:00:09.195Z,18.60
2018-06-12T10:01:11.320Z,18.50
2018-06-12T10:02:05.823Z,18.50
2018-06-12T10:03:06.184Z,18.60
2018-06-12T10:04:06.308Z,18.60
2018-06-12T10:05:06.122Z,18.60
2018-06-12T10:06:05.530Z,18.70
2018-06-12T10:07:10.955Z,18.60
2018-06-12T10:08:05.429Z,18.70
2018-06-12T10:09:06.001Z,18.70
2018-06-12T10:10:08.430Z,18.70
2018-06-12T10:11:08.986Z,18.70
2018-06-12T10:12:05.737Z,18.70
2018-06-12T10:13:06.182Z,18.70
2018-06-12T10:14:05.272Z,18.70
2018-06-12T10:15:08.490Z,18.70
2018-06-12T10:16:11.078Z,18.60
2018-06-12T10:17:08.035Z,18.60
2018-06-12T10:18:08.063Z,18.70
2018-06-12T10:19:05.714Z,18.60
2018-06-12T10:20:08.107Z,18.70
2018-06-12T10:21:08.282Z,18.80
2018-06-12T10:22:05.969Z,18.80
2018-06-12T10:23:05.219Z,18.80
2018-06-12T10:24:08.444Z,18.90
2018-06-12T10:25:08.522Z,18.90
2018-06-12T10:26:06.152Z,18.90
2018-06-12T10:27:09.438Z,18.90
2018-06-12T10:28:05.660Z,18.90
2018-06-12T10:29:05.762Z,19.00
2018-06-12T10:30:05.952Z,19.00
2018-06-12T10:31:05.897Z,19.00
2018-06-12T10:32:10.936Z,19.00
2018-06-12T10:33:05.184Z,19.00
2018-06-12T10:34:10.965Z,19.00
2018-06-12T10:35:05.946Z,19.10
2018-06-12T10:36:05.958Z,19.10
2018-06-12T10:37:05.729Z,19.10
2018-06-12T10:38:06.051Z,19.10
2018-06-12T10:39:05.814Z,19.20
2018-06-12T10:40:10.851Z,19.20
2018-06-12T10:41:05.353Z,19.20
2018-06-12T10:42:08.481Z,19.20
2018-06-12T10:43:06.025Z,19.10
2018-06-12T10:44:05.642Z,19.10
2018-06-12T10:45:06.056Z,19.10
2018-06-12T10:46:10.750Z,19.10
2018-06-12T10:47:05.954Z,19.10
2018-06-12T10:48:05.987Z,19.10
2018-06-12T10:49:06.134Z,19.10
2018-06-12T10:50:07.841Z,19.20
2018-06-12T10:51:08.650Z,19.30
2018-06-12T10:52:05.512Z,19.30
2018-06-12T10:53:06.417Z,19.30
2018-06-12T10:54:05.862Z,19.30
2018-06-12T10:55:16.096Z,19.40
2018-06-12T10:56:10.618Z,19.50
2018-06-12T10:57:06.137Z,19.50
2018-06-12T10:58:08.221Z,19.60
2018-06-12T10:59:06.184Z,19.60
2018-06-12T11:00:05.833Z,19.60
2018-06-12T11:01:10.658Z,19.70
2018-06-12T11:02:05.796Z,19.70
2018-06-12T11:03:05.985Z,19.80
2018-06-12T11:04:08.255Z,19.90
2018-06-12T11:05:09.137Z,19.90
2018-06-12T11:06:10.857Z,19.90
2018-06-12T11:07:08.069Z,19.90
2018-06-12T11:08:05.978Z,19.90
2018-06-12T11:09:10.767Z,19.80
2018-06-12T11:10:07.948Z,19.80
2018-06-12T11:11:05.398Z,19.80
2018-06-12T11:12:05.329Z,19.80
2018-06-12T11:13:07.841Z,19.70
2018-06-12T11:14:05.343Z,19.70
2018-06-12T11:15:08.542Z,19.70
2018-06-12T11:16:06.001Z,19.70
2018-06-12T11:17:06.239Z,19.80
2018-06-12T11:18:10.921Z,19.80
2018-06-12T11:19:10.623Z,19.80
2018-06-12T11:20:08.303Z,19.80
2018-06-12T11:21:05.713Z,19.80
2018-06-12T11:22:05.957Z,19.90
2018-06-12T11:23:05.356Z,19.90
2018-06-12T11:24:11.146Z,19.90
2018-06-12T11:25:05.678Z,19.90
2018-06-12T11:26:05.376Z,19.90
2018-06-12T11:27:11.387Z,20.00
2018-06-12T11:28:08.394Z,20.10
2018-06-12T11:29:10.873Z,20.10
2018-06-12T11:30:06.198Z,20.10
2018-06-12T11:31:05.699Z,20.20
2018-06-12T11:32:05.779Z,20.30
2018-06-12T11:33:05.985Z,20.30
2018-06-12T11:34:05.181Z,20.30
2018-06-12T11:35:06.769Z,20.30
2018-06-12T11:36:08.724Z,20.40
2018-06-12T11:37:07.809Z,20.40
2018-06-12T11:38:05.209Z,20.40
2018-06-12T11:39:08.451Z,20.40
2018-06-12T11:40:11.171Z,20.40
2018-06-12T11:41:08.366Z,20.40
2018-06-12T11:42:10.898Z,20.40
2018-06-12T11:43:05.942Z,20.40
2018-06-12T11:44:11.061Z,20.40
2018-06-12T11:45:05.981Z,20.40
2018-06-12T11:46:06.150Z,20.40
2018-06-12T11:47:08.325Z,20.50
2018-06-12T11:48:05.799Z,20.50
2018-06-12T11:49:06.380Z,20.50
2018-06-12T11:50:08.951Z,20.50
2018-06-12T11:51:09.749Z,20.50
2018-06-12T11:52:05.407Z,20.50
2018-06-12T11:53:05.696Z,20.50
2018-06-12T11:54:07.996Z,20.50
2018-06-12T11:55:05.590Z,20.50
2018-06-12T11:56:05.704Z,20.50
2018-06-12T11:57:05.247Z,20.50
2018-06-12T11:58:08.550Z,20.40
2018-06-12T11:59:06.466Z,20.40
2018-06-12T12:00:08.932Z,20.50
2018-06-12T12:01:08.334Z,20.50
2018-06-12T12:02:09.437Z,20.50
2018-06-12T12:03:08.608Z,20.50
2018-06-12T12:04:11.094Z,20.50
2018-06-12T12:05:06.211Z,20.60
2018-06-12T12:06:08.892Z,20.60
2018-06-12T12:07:06.592Z,20.60
2018-06-12T12:08:08.592Z,20.70
2018-06-12T12:09:06.123Z,20.70
2018-06-12T12:10:05.979Z,20.70
2018-06-12T12:11:10.673Z,20.80
2018-06-12T12:12:05.759Z,20.80
2018-06-12T12:13:05.738Z,20.80
2018-06-12T12:14:08.618Z,20.90
2018-06-12T12:15:05.264Z,20.90
2018-06-12T12:16:06.417Z,20.90
2018-06-12T12:17:05.628Z,20.90
2018-06-12T12:18:08.204Z,21.00
2018-06-12T12:19:08.027Z,21.00
2018-06-12T12:20:05.627Z,21.00
2018-06-12T12:21:07.801Z,21.10
2018-06-12T12:22:05.279Z,21.10
2018-06-12T12:23:05.533Z,21.20
2018-06-12T12:24:05.526Z,21.20
2018-06-12T12:25:10.639Z,21.30
2018-06-12T12:26:05.637Z,21.30
2018-06-12T12:27:05.841Z,21.30
2018-06-12T12:28:06.040Z,21.30
2018-06-12T12:29:05.093Z,21.30
2018-06-12T12:30:05.220Z,21.30
2018-06-12T12:31:06.107Z,21.30
2018-06-12T12:32:08.228Z,21.40
2018-06-12T12:33:10.866Z,21.40
2018-06-12T12:34:08.408Z,21.30
2018-06-12T12:35:06.238Z,21.30
2018-06-12T12:36:06.035Z,21.30
2018-06-12T12:37:05.156Z,21.30
2018-06-12T12:38:08.612Z,21.20
2018-06-12T12:39:08.609Z,21.30
2018-06-12T12:40:10.837Z,21.30
2018-06-12T12:41:05.367Z,21.30
2018-06-12T12:42:08.265Z,21.30
2018-06-12T12:43:05.771Z,21.30
2018-06-12T12:44:08.519Z,21.40
2018-06-12T12:45:05.958Z,21.40
2018-06-12T12:46:05.728Z,21.50
2018-06-12T12:47:08.557Z,21.60
2018-06-12T12:48:06.127Z,21.60
2018-06-12T12:49:06.089Z,21.70
2018-06-12T12:50:05.576Z,21.70
2018-06-12T12:51:10.729Z,21.80
2018-06-12T12:52:08.383Z,21.80